Terminal Aerodrome Forecast
Issued by NWS Caribou, ME

Home | Current Version | Previous Version | Text Only | Print | Product List | Glossary On
Versions: 1 2 3 4 5 6 7 8 9 10 11 12 13 14 15
000
FTUS41 KCAR 221700
TAFBGR
TAF
KBGR 221723Z 2218/2318 07005KT P6SM BKN030
     FM222000 00000KT P6SM BKN090
     FM230700 VRB03KT P6SM BKN025
     FM231100 04004KT P6SM SCT050=

USA.gov is the U.S. government's official web portal to all federal, state and local government web resources and services.